Time;durP1;ratioP1;P1;durP2;ratioP2;P2;SDS_P1;SDS_P2;PMS_P1;PMS_P2;Temp;Humidity;BMP_temperature;BMP_pressure;BME280_temperature;BME280_humidity;BME280_pressure;Samples;Min_cycle;Max_cycle;Signal;HPM_P1;HPM_P2
2022/11/27 07:06:25;;;;;;;5.75;4.03;;;;;;;6.50;93.69;101943.91;5343445;27;20383;-71
2022/11/27 07:08:56;;;;;;;8.38;4.68;;;;;;;6.50;93.85;101935.63;5343383;28;20027;-71
2022/11/27 07:11:32;;;;;;;7.43;4.30;;;;;;;6.48;93.95;101935.00;5332502;28;20036;-72
2022/11/27 07:14:04;;;;;;;7.65;4.57;;;;;;;6.48;94.29;101926.75;5320747;28;20032;-72
2022/11/27 07:16:36;;;;;;;7.28;4.18;;;;;;;6.50;94.80;101919.91;5320255;28;20526;-72
2022/11/27 07:19:07;;;;;;;7.57;4.15;;;;;;;6.52;94.95;101906.75;5332002;27;20087;-72
2022/11/27 07:21:39;;;;;;;8.80;3.83;;;;;;;6.58;94.95;101915.16;5343395;27;20027;-72
2022/11/27 07:24:10;;;;;;;5.95;4.60;;;;;;;6.61;95.10;101903.66;5339760;28;20031;-72
2022/11/27 07:26:41;;;;;;;8.63;3.70;;;;;;;6.58;95.25;101904.97;5341115;27;20035;-72
2022/11/27 07:29:13;;;;;;;6.70;3.60;;;;;;;6.62;95.48;101897.03;5330030;27;20032;-71
2022/11/27 07:31:49;;;;;;;7.55;3.83;;;;;;;6.63;95.29;101907.84;5319776;28;20381;-72
2022/11/27 07:34:20;;;;;;;10.65;5.03;;;;;;;6.66;95.69;101896.34;5321251;28;20069;-72
2022/11/27 07:36:52;;;;;;;9.65;4.28;;;;;;;6.64;95.24;101892.13;5320834;28;20023;-72
2022/11/27 07:39:24;;;;;;;7.22;4.00;;;;;;;6.66;95.38;101890.00;5320814;28;20073;-71
2022/11/27 07:41:56;;;;;;;7.10;4.10;;;;;;;6.63;95.25;101890.47;5320107;28;20044;-73
2022/11/27 07:44:30;;;;;;;9.60;6.18;;;;;;;6.66;95.60;101887.22;5321022;28;20028;-72
2022/11/27 07:47:01;;;;;;;7.30;3.97;;;;;;;6.66;95.66;101885.31;5328406;28;20459;-72
2022/11/27 07:49:33;;;;;;;7.30;5.00;;;;;;;6.64;95.89;101886.63;5336049;27;20030;-72
2022/11/27 07:52:05;;;;;;;7.20;4.40;;;;;;;6.65;96.11;101877.28;5330045;27;20027;-71
2022/11/27 07:54:38;;;;;;;7.72;4.30;;;;;;;6.67;96.34;101870.47;5320745;28;20062;-72
2022/11/27 07:57:09;;;;;;;7.97;4.60;;;;;;;6.65;96.59;101861.59;5332504;27;20036;-71
2022/11/27 07:59:40;;;;;;;6.72;4.95;;;;;;;6.64;96.66;101854.38;5337878;27;20099;-72
2022/11/27 08:02:12;;;;;;;10.02;4.78;;;;;;;6.52;96.63;101850.81;5327697;28;20053;-72
2022/11/27 08:04:43;;;;;;;8.55;5.22;;;;;;;6.52;97.24;101854.38;5320429;28;20055;-72
2022/11/27 08:07:14;;;;;;;8.15;4.78;;;;;;;6.61;97.92;101848.50;5337985;27;20110;-71
2022/11/27 08:09:46;;;;;;;8.32;5.40;;;;;;;6.51;96.94;101843.59;5341873;28;20106;-72
2022/11/27 08:12:17;;;;;;;11.90;6.03;;;;;;;6.58;97.42;101843.47;5341496;27;20049;-71
2022/11/27 08:14:48;;;;;;;6.72;4.25;;;;;;;6.64;97.42;101837.00;5339896;27;20016;-71
2022/11/27 08:17:20;;;;;;;8.02;4.80;;;;;;;6.55;97.71;101849.47;5327847;28;20034;-71
2022/11/27 08:19:51;;;;;;;7.65;5.15;;;;;;;6.63;97.39;101847.19;5312292;28;20016;-71
2022/11/27 08:22:22;;;;;;;6.88;4.45;;;;;;;6.71;97.14;101860.63;5326689;28;20043;-71
2022/11/27 08:24:57;;;;;;;7.10;5.35;;;;;;;6.71;97.26;101846.00;5327202;28;20035;-71
2022/11/27 08:27:31;;;;;;;5.13;4.55;;;;;;;6.77;96.98;101847.78;5326524;28;20569;-71
2022/11/27 08:30:03;;;;;;;8.07;5.53;;;;;;;6.70;96.59;101845.16;5325758;28;20092;-71
2022/11/27 08:32:39;;;;;;;12.50;5.65;;;;;;;6.79;96.95;101840.13;5315583;28;20027;-70
2022/11/27 08:35:10;;;;;;;8.95;5.32;;;;;;;6.82;96.93;101845.16;5326404;28;20034;-71
2022/11/27 08:37:42;;;;;;;8.00;4.93;;;;;;;6.88;96.83;101852.47;5311290;28;20098;-72
2022/11/27 08:40:13;;;;;;;8.10;5.63;;;;;;;6.91;95.93;101848.41;5305387;28;20031;-72
2022/11/27 08:42:45;;;;;;;10.63;6.30;;;;;;;6.88;96.45;101841.44;5304112;28;20032;-72
2022/11/27 08:45:16;;;;;;;9.70;6.85;;;;;;;6.90;96.69;101841.19;5311400;28;20101;-72
2022/11/27 08:47:47;;;;;;;8.18;5.72;;;;;;;6.96;96.71;101849.34;5303867;28;20024;-72
2022/11/27 08:50:19;;;;;;;6.15;5.28;;;;;;;6.99;96.34;101845.28;5304971;28;20020;-72
2022/11/27 08:52:50;;;;;;;8.77;5.90;;;;;;;7.03;96.46;101837.34;5305791;28;20024;-72
2022/11/27 08:55:21;;;;;;;8.75;5.80;;;;;;;7.06;96.78;101850.69;5314029;28;20028;-72
2022/11/27 08:57:53;;;;;;;9.70;5.78;;;;;;;7.02;96.31;101844.78;5323424;28;20466;-72
2022/11/27 09:00:24;;;;;;;7.70;5.50;;;;;;;7.05;97.06;101843.47;5322646;28;20066;-73
2022/11/27 09:02:57;;;;;;;9.85;5.78;;;;;;;7.02;96.70;101849.47;5320036;28;20024;-72
2022/11/27 09:05:29;;;;;;;9.77;5.97;;;;;;;7.04;97.13;101848.16;5315346;28;20105;-73
2022/11/27 09:08:04;;;;;;;8.52;6.22;;;;;;;7.08;97.15;101854.00;5309528;28;20066;-73
2022/11/27 09:10:35;;;;;;;11.50;7.65;;;;;;;7.07;97.33;101846.81;5322267;28;20046;-71
2022/11/27 09:13:07;;;;;;;10.02;6.00;;;;;;;7.14;96.85;101842.03;5325077;28;20035;-71
2022/11/27 09:15:38;;;;;;;8.93;7.05;;;;;;;7.17;97.10;101847.88;5325734;28;20458;-71
2022/11/27 09:18:09;;;;;;;8.50;5.80;;;;;;;7.19;97.03;101847.66;5303562;28;20521;-71
2022/11/27 09:20:40;;;;;;;8.55;6.55;;;;;;;7.18;97.38;101845.94;5304990;28;20471;-71
2022/11/27 09:23:12;;;;;;;10.05;6.75;;;;;;;7.23;97.71;101848.81;5304216;28;20467;-71
2022/11/27 09:25:43;;;;;;;10.50;7.18;;;;;;;7.18;97.45;101834.91;5304606;28;20512;-71
2022/11/27 09:28:14;;;;;;;8.80;6.65;;;;;;;7.24;98.38;101841.41;5315370;28;20073;-71
2022/11/27 09:30:46;;;;;;;9.43;6.75;;;;;;;7.26;98.11;101840.09;5319461;28;20046;-71
2022/11/27 09:33:17;;;;;;;12.20;6.70;;;;;;;7.25;98.26;101838.38;5324876;28;20020;-72
2022/11/27 09:35:48;;;;;;;12.80;6.20;;;;;;;7.29;98.29;101847.88;5321849;28;20039;-72
2022/11/27 09:38:32;;;;;;;11.13;7.55;;;;;;;7.34;98.51;101842.47;5324820;28;20035;-72
2022/11/27 09:41:37;;;;;;;12.00;7.72;;;;;;;7.38;99.07;101840.03;5322449;28;20366;-72
2022/11/27 09:44:17;;;;;;;11.23;7.28;;;;;;;7.35;99.13;101838.59;5321762;28;20040;-72
2022/11/27 09:46:50;;;;;;;11.38;7.28;;;;;;;7.30;98.50;101830.22;5313491;28;20494;-71
2022/11/27 09:49:41;;;;;;;7.85;6.60;;;;;;;7.37;98.73;101833.69;5325597;28;20099;-72
2022/11/27 09:52:33;;;;;;;8.13;6.63;;;;;;;7.39;99.33;101831.53;5325216;28;20019;-71
2022/11/27 09:55:15;;;;;;;10.73;6.90;;;;;;;7.39;98.90;101827.94;5320907;28;20028;-70
2022/11/27 09:58:04;;;;;;;15.57;8.23;;;;;;;7.45;99.60;101826.09;5325546;28;20020;-72
2022/11/27 10:00:35;;;;;;;9.23;7.03;;;;;;;7.40;99.29;101813.88;5306153;28;20052;-71
2022/11/27 10:03:12;;;;;;;13.00;7.38;;;;;;;7.43;99.62;101817.22;5320473;28;20408;-71
2022/11/27 10:06:03;;;;;;;9.82;7.18;;;;;;;7.40;99.67;101807.53;5308350;28;20082;-73
2022/11/27 10:08:50;;;;;;;10.02;7.13;;;;;;;7.45;100.00;101815.06;5304159;28;20028;-73
2022/11/27 10:11:29;;;;;;;13.95;9.60;;;;;;;7.45;99.45;101802.09;5324815;28;20107;-73
2022/11/27 10:14:17;;;;;;;9.98;7.07;;;;;;;7.50;99.54;101801.38;5324560;28;20558;-73
2022/11/27 10:17:07;;;;;;;11.88;7.00;;;;;;;7.53;99.67;101798.94;5307799;28;20478;-73
2022/11/27 10:19:39;;;;;;;8.85;6.30;;;;;;;7.48;99.17;101792.50;5315235;28;20028;-73
2022/11/27 10:22:39;;;;;;;9.88;7.00;;;;;;;7.57;100.00;101782.75;5315284;28;20114;-73
2022/11/27 10:25:24;;;;;;;7.47;6.32;;;;;;;7.44;99.07;101769.22;5293584;28;20048;-72
2022/11/27 10:28:12;;;;;;;11.07;7.10;;;;;;;7.50;99.43;101777.38;5302596;28;20030;-73
2022/11/27 10:30:59;;;;;;;17.17;13.13;;;;;;;7.49;99.71;101770.19;5312583;28;20028;-72
2022/11/27 10:33:41;;;;;;;9.13;7.20;;;;;;;7.57;99.83;101774.47;5306142;28;20016;-72
2022/11/27 10:36:15;;;;;;;7.18;6.38;;;;;;;7.52;100.00;101769.69;5303908;28;20048;-72
2022/11/27 10:38:47;;;;;;;12.15;6.97;;;;;;;7.57;100.00;101764.25;5303590;28;20094;-73
2022/11/27 10:41:33;;;;;;;9.23;6.70;;;;;;;7.61;100.00;101759.06;5302337;28;20028;-73
2022/11/27 10:44:37;;;;;;;12.68;7.93;;;;;;;7.63;100.00;101752.22;5310440;28;20042;-73
2022/11/27 10:47:12;;;;;;;9.43;6.72;;;;;;;7.56;100.00;101751.50;5291441;28;20060;-71
2022/11/27 10:49:46;;;;;;;10.27;7.15;;;;;;;7.61;99.93;101743.31;5304352;28;20024;-71
2022/11/27 10:52:18;;;;;;;11.93;7.82;;;;;;;7.60;99.24;101747.19;5304030;28;20055;-71
2022/11/27 10:54:56;;;;;;;9.65;6.72;;;;;;;7.68;98.88;101742.34;5310329;28;20107;-71
2022/11/27 10:57:43;;;;;;;10.63;8.68;;;;;;;7.60;98.96;101738.91;5325056;28;20167;-72
2022/11/27 11:00:22;;;;;;;9.27;7.32;;;;;;;7.66;99.19;101742.59;5320259;28;20624;-72
2022/11/27 11:03:04;;;;;;;10.43;7.45;;;;;;;7.70;98.92;101735.50;5302966;28;20521;-72
2022/11/27 11:05:36;;;;;;;10.30;6.93;;;;;;;7.67;99.13;101718.56;5303103;28;20047;-72
2022/11/27 11:08:19;;;;;;;8.20;6.15;;;;;;;7.73;99.12;101723.13;5308419;28;20032;-73
2022/11/27 11:10:56;;;;;;;9.38;7.00;;;;;;;7.73;99.29;101718.44;5306426;28;20375;-73
2022/11/27 11:13:30;;;;;;;8.48;6.72;;;;;;;7.74;98.89;101709.03;5308322;28;20055;-73
2022/11/27 11:16:15;;;;;;;8.35;6.28;;;;;;;7.79;98.63;101702.78;5314954;28;20412;-73
2022/11/27 11:18:53;;;;;;;8.63;6.88;;;;;;;7.79;98.24;101697.25;5300902;28;20043;-73
2022/11/27 11:21:31;;;;;;;10.27;7.43;;;;;;;7.68;98.08;101693.50;5300133;28;20043;-72
2022/11/27 11:24:13;;;;;;;11.80;8.55;;;;;;;7.76;98.99;101693.06;5303859;28;20045;-72
2022/11/27 11:26:48;;;;;;;11.10;7.20;;;;;;;7.79;98.44;101688.97;5309941;28;20035;-72
2022/11/27 11:29:28;;;;;;;10.60;6.78;;;;;;;7.78;98.09;101684.53;5320896;28;20518;-73
2022/11/27 11:32:24;;;;;;;8.23;6.78;;;;;;;7.88;98.44;101675.59;5306280;28;20651;-72
2022/11/27 11:34:58;;;;;;;;;;;;;;;7.96;98.01;101672.41;5301063;28;20130;-71
2022/11/27 11:37:37;;;;;;;10.65;6.45;;;;;;;7.87;98.11;101665.63;5305765;28;20278;-71
2022/11/27 11:40:23;;;;;;;7.78;6.95;;;;;;;7.88;98.77;101656.25;5307893;28;20035;-72
2022/11/27 11:43:05;;;;;;;10.75;7.80;;;;;;;7.88;98.90;101654.34;5303564;28;20056;-71
2022/11/27 11:45:44;;;;;;;13.50;12.27;;;;;;;7.89;98.81;101663.44;5301982;28;20043;-71
2022/11/27 11:48:25;;;;;;;13.43;8.85;;;;;;;7.92;99.29;101647.19;5303277;28;20039;-71
2022/11/27 11:51:13;;;;;;;8.18;6.97;;;;;;;7.93;98.99;101635.06;5318209;28;20354;-71
2022/11/27 11:54:14;;;;;;;10.65;7.60;;;;;;;7.96;99.32;101639.25;5305727;28;20041;-70
2022/11/27 11:56:51;;;;;;;8.82;7.85;;;;;;;7.91;99.51;101636.41;5307268;28;20233;-71
2022/11/27 12:00:09;;;;;;;8.57;7.50;;;;;;;8.01;99.89;101631.06;5306159;28;20020;-71
2022/11/27 12:03:23;;;;;;;16.20;14.57;;;;;;;8.02;98.73;101621.66;5306242;28;20127;-72
2022/11/27 12:06:27;;;;;;;10.07;7.55;;;;;;;8.03;99.92;101606.78;5312676;28;20055;-72
2022/11/27 12:09:14;;;;;;;9.30;6.88;;;;;;;8.03;99.51;101602.09;5305722;28;20035;-73
2022/11/27 12:12:00;;;;;;;9.15;6.65;;;;;;;8.04;99.81;101597.38;5305472;28;20032;-71
2022/11/27 12:15:01;;;;;;;9.25;8.30;;;;;;;8.12;99.22;101594.19;5317546;28;20070;-71
2022/11/27 12:17:55;;;;;;;8.93;7.03;;;;;;;8.12;98.91;101585.91;5313868;28;20024;-71
2022/11/27 12:20:46;;;;;;;9.52;7.07;;;;;;;8.12;98.77;101576.78;5309971;28;20505;-71
2022/11/27 12:23:41;;;;;;;7.28;6.53;;;;;;;8.10;98.79;101588.06;5305367;28;20108;-70
2022/11/27 12:26:21;;;;;;;10.82;6.70;;;;;;;8.13;98.51;101572.91;5317592;28;20381;-71
2022/11/27 12:29:15;;;;;;;8.32;6.60;;;;;;;8.20;98.33;101559.75;5316537;28;20038;-71
2022/11/27 12:32:30;;;;;;;9.50;6.68;;;;;;;8.20;97.99;101563.34;5307344;28;20031;-71
2022/11/27 12:35:33;;;;;;;11.13;7.43;;;;;;;8.21;97.00;101559.50;5249309;28;20483;-71
2022/11/27 12:38:37;;;;;;;8.40;6.65;;;;;;;8.18;97.16;101560.03;5305989;28;20426;-72
2022/11/27 12:41:24;;;;;;;9.68;7.07;;;;;;;8.22;96.50;101541.00;5305174;28;20123;-73
2022/11/27 12:43:59;;;;;;;8.63;7.22;;;;;;;8.23;96.76;101540.75;5309056;28;20024;-72
2022/11/27 12:46:53;;;;;;;7.40;6.70;;;;;;;8.30;97.07;101539.69;5326089;28;20036;-70
2022/11/27 12:49:42;;;;;;;8.68;6.43;;;;;;;8.31;96.71;101547.75;5314946;28;20020;-70
2022/11/27 12:52:28;;;;;;;9.07;8.18;;;;;;;8.34;96.40;101549.16;5316445;28;20028;-71
2022/11/27 12:55:14;;;;;;;9.45;7.18;;;;;;;8.38;96.70;101537.31;5326230;28;20545;-71
2022/11/27 12:57:53;;;;;;;11.73;7.88;;;;;;;8.36;96.03;101533.13;5326829;28;20032;-70
2022/11/27 13:00:29;;;;;;;7.93;7.13;;;;;;;8.35;95.74;101535.06;5306334;28;20117;-71
2022/11/27 13:03:15;;;;;;;8.45;7.28;;;;;;;8.33;95.11;101520.66;5304704;28;20020;-70
2022/11/27 13:05:51;;;;;;;10.88;8.27;;;;;;;8.39;95.22;101513.28;5325886;28;20048;-71
2022/11/27 13:08:38;;;;;;;10.52;8.43;;;;;;;8.40;94.78;101507.50;5321420;28;20024;-72
2022/11/27 13:11:12;;;;;;;10.00;8.05;;;;;;;8.42;94.97;101505.34;5292064;28;20024;-72
2022/11/27 13:14:13;;;;;;;8.07;6.72;;;;;;;8.42;94.75;101515.56;5305181;28;20024;-71
2022/11/27 13:16:55;;;;;;;8.52;7.68;;;;;;;8.50;95.55;101512.34;5311222;28;20077;-71
2022/11/27 13:19:43;;;;;;;9.88;7.78;;;;;;;8.48;95.60;101507.06;5326026;28;20062;-68
2022/11/27 13:22:26;;;;;;;8.52;7.53;;;;;;;8.45;95.11;101503.97;5317299;27;20160;-71
2022/11/27 13:25:03;;;;;;;9.43;7.07;;;;;;;8.45;95.38;101504.81;5325090;28;20027;-71
2022/11/27 13:27:36;;;;;;;9.18;6.43;;;;;;;8.40;94.97;101496.47;5304124;28;20030;-71
2022/11/27 13:30:15;;;;;;;9.77;8.77;;;;;;;8.40;95.06;101502.00;5318212;28;20048;-72
2022/11/27 13:32:51;;;;;;;9.68;8.10;;;;;;;8.44;95.37;101513.38;5305613;28;20050;-72
2022/11/27 13:35:36;;;;;;;11.40;9.80;;;;;;;8.46;96.23;101506.50;5325340;28;20447;-71
2022/11/27 13:38:24;;;;;;;10.10;8.00;;;;;;;8.45;95.84;101512.28;5324194;28;20062;-71
2022/11/27 13:40:56;;;;;;;8.50;7.70;;;;;;;8.41;95.54;101513.88;5309587;28;20078;-72
2022/11/27 13:43:42;;;;;;;10.43;7.60;;;;;;;8.47;95.90;101507.31;5314875;28;20024;-72
2022/11/27 13:46:18;;;;;;;8.23;6.82;;;;;;;8.49;96.97;101505.16;5325389;28;20045;-72
2022/11/27 13:49:04;;;;;;;12.05;7.53;;;;;;;8.48;97.36;101498.75;5320432;28;20027;-69
2022/11/27 13:51:37;;;;;;;;;;;;;;;8.58;96.77;101486.97;5325213;28;20027;-68
2022/11/27 13:54:14;;;;;;;11.35;7.63;;;;;;;8.47;97.15;101493.50;5313618;28;19922;-69
2022/11/27 13:56:46;;;;;;;8.77;7.88;;;;;;;8.40;96.48;101487.34;5304006;28;20032;-69
2022/11/27 13:59:21;;;;;;;9.15;7.07;;;;;;;8.40;97.34;101474.34;5306160;28;20035;-70
2022/11/27 14:02:02;;;;;;;8.37;6.77;;;;;;;8.44;96.70;101474.69;5310892;28;20102;-70
2022/11/27 14:04:34;;;;;;;10.85;8.02;;;;;;;8.42;97.23;101477.69;5303218;28;20107;-69
2022/11/27 14:07:12;;;;;;;9.80;7.68;;;;;;;8.45;98.02;101470.81;5304284;28;20038;-70
2022/11/27 14:10:21;;;;;;;11.55;8.45;;;;;;;8.42;98.18;101455.59;5303466;28;20027;-70
2022/11/27 14:13:02;;;;;;;11.05;9.80;;;;;;;8.39;97.91;101447.81;5299003;28;20100;-72
2022/11/27 14:15:35;;;;;;;9.55;8.18;;;;;;;8.42;98.49;101449.22;5301120;28;20024;-72
2022/11/27 14:18:20;;;;;;;9.98;8.05;;;;;;;8.40;98.51;101435.66;5315211;28;20024;-72
2022/11/27 14:21:03;;;;;;;9.50;8.57;;;;;;;8.40;97.90;101440.34;5304127;28;20050;-70
2022/11/27 14:23:49;;;;;;;10.48;9.15;;;;;;;8.33;97.80;101423.09;5302960;28;20055;-71
2022/11/27 14:26:23;;;;;;;12.52;10.38;;;;;;;8.28;98.36;101427.50;5303580;28;20035;-69
2022/11/27 14:29:01;;;;;;;10.40;8.98;;;;;;;8.29;98.62;101428.34;5305055;28;20027;-70
2022/11/27 14:31:34;;;;;;;11.35;9.05;;;;;;;8.27;98.42;101416.69;5310139;28;20500;-69
2022/11/27 14:34:24;;;;;;;13.82;10.43;;;;;;;8.32;97.80;101415.91;5306562;28;20045;-69
2022/11/27 14:36:55;;;;;;;11.40;8.80;;;;;;;8.31;97.06;101417.84;5303931;28;20111;-69
2022/11/27 14:39:33;;;;;;;10.23;8.07;;;;;;;8.26;97.13;101418.63;5305696;28;20107;-69
2022/11/27 14:42:06;;;;;;;11.48;8.55;;;;;;;8.26;96.53;101418.63;5302614;28;20074;-70
2022/11/27 14:44:39;;;;;;;8.57;7.57;;;;;;;8.26;96.93;101426.91;5302582;28;20081;-69
2022/11/27 14:47:18;;;;;;;9.73;7.53;;;;;;;8.27;95.97;101416.69;5301395;28;20115;-69
2022/11/27 14:49:54;;;;;;;8.77;7.93;;;;;;;8.31;96.46;101403.19;5304337;28;20034;-69
2022/11/27 14:52:26;;;;;;;7.93;6.80;;;;;;;8.24;95.67;101406.16;5321979;28;20204;-69
2022/11/27 14:55:01;;;;;;;10.65;8.40;;;;;;;8.24;96.04;101404.22;5321937;28;20422;-69
2022/11/27 14:57:32;;;;;;;8.90;8.00;;;;;;;8.19;95.64;101403.34;5322469;28;20023;-68
2022/11/27 15:00:14;;;;;;;9.77;7.78;;;;;;;8.23;97.00;101397.06;5301239;28;20027;-69
2022/11/27 15:02:47;;;;;;;10.38;8.02;;;;;;;8.21;96.66;101387.34;5301613;28;20418;-70
2022/11/27 15:05:25;;;;;;;8.93;7.32;;;;;;;8.23;97.41;101388.75;5302947;28;20056;-69
2022/11/27 15:07:57;;;;;;;9.07;7.97;;;;;;;8.18;97.18;101382.31;5301857;28;20021;-70
2022/11/27 15:10:31;;;;;;;10.52;7.85;;;;;;;8.23;97.22;101380.47;5302583;28;20505;-69
2022/11/27 15:13:04;;;;;;;10.63;8.32;;;;;;;8.20;97.34;101375.44;5303009;28;20519;-69
2022/11/27 15:15:43;;;;;;;8.75;7.68;;;;;;;8.25;97.20;101361.69;5301328;28;20028;-69
2022/11/27 15:18:23;;;;;;;9.52;7.63;;;;;;;8.20;96.88;101366.31;5303180;28;20514;-69
2022/11/27 15:20:56;;;;;;;9.75;8.13;;;;;;;8.19;97.58;101368.25;5302381;28;20028;-70
2022/11/27 15:23:33;;;;;;;9.48;7.70;;;;;;;8.21;97.35;101371.59;5301817;28;20114;-69
2022/11/27 15:26:10;;;;;;;11.63;6.50;;;;;;;8.21;97.17;101365.25;5303468;28;20032;-70
2022/11/27 15:28:52;;;;;;;8.18;7.00;;;;;;;8.20;97.12;101358.88;5327470;28;20012;-69
2022/11/27 15:31:32;;;;;;;8.32;7.53;;;;;;;8.07;96.80;101348.25;5328438;28;20031;-68
2022/11/27 15:34:14;;;;;;;8.02;7.10;;;;;;;8.13;97.48;101336.16;5328440;28;20106;-69
2022/11/27 15:37:00;;;;;;;8.40;7.38;;;;;;;8.20;97.06;101338.69;5326593;28;20027;-68
2022/11/27 15:39:50;;;;;;;11.15;7.38;;;;;;;8.17;96.83;101340.06;5307215;28;20442;-69
2022/11/27 15:42:22;;;;;;;8.10;6.95;;;;;;;8.13;96.63;101336.16;5312345;28;20031;-70
2022/11/27 15:44:56;;;;;;;8.80;7.55;;;;;;;8.17;96.86;101337.28;5305795;28;20020;-72
2022/11/27 15:47:32;;;;;;;12.70;8.13;;;;;;;8.09;97.23;101329.47;5306526;28;20035;-69
2022/11/27 15:50:04;;;;;;;8.57;7.68;;;;;;;8.10;98.17;101331.13;5306184;28;20024;-69
2022/11/27 15:52:36;;;;;;;10.80;7.70;;;;;;;8.18;97.72;101333.44;5306824;28;20020;-70
2022/11/27 15:55:14;;;;;;;8.32;7.35;;;;;;;8.22;97.39;101326.28;5306903;28;20043;-70
2022/11/27 15:57:46;;;;;;;7.45;6.38;;;;;;;8.12;96.32;101320.66;5305397;28;20481;-69
2022/11/27 16:00:18;;;;;;;7.65;6.70;;;;;;;8.12;95.98;101312.38;5309126;28;20047;-69
2022/11/27 16:02:51;;;;;;;8.35;7.45;;;;;;;8.18;96.31;101311.34;5306342;28;20053;-70
2022/11/27 16:05:22;;;;;;;11.25;8.43;;;;;;;8.18;96.20;101305.81;5305494;28;20044;-69
2022/11/27 16:07:56;;;;;;;8.77;7.00;;;;;;;8.13;96.06;101291.97;5306455;28;20016;-70
2022/11/27 16:10:27;;;;;;;7.97;7.13;;;;;;;8.11;95.34;101288.63;5306222;28;20169;-69
2022/11/27 16:12:59;;;;;;;9.75;7.93;;;;;;;8.15;95.26;101291.69;5305371;28;20107;-70
2022/11/27 16:15:31;;;;;;;7.70;6.72;;;;;;;8.18;95.30;101288.38;5311529;28;20020;-69
2022/11/27 16:18:05;;;;;;;7.43;6.45;;;;;;;8.16;94.77;101290.59;5327369;28;20032;-69
2022/11/27 16:20:37;;;;;;;10.13;7.00;;;;;;;8.17;94.00;101290.31;5328340;28;20031;-69
2022/11/27 16:23:08;;;;;;;9.18;7.18;;;;;;;8.18;94.21;101292.00;5328178;28;20036;-70
2022/11/27 16:25:39;;;;;;;7.93;6.63;;;;;;;8.15;93.57;101286.97;5322990;28;20055;-69
2022/11/27 16:28:11;;;;;;;8.88;7.03;;;;;;;8.21;93.65;101280.41;5314916;28;20458;-69
2022/11/27 16:30:43;;;;;;;10.25;7.22;;;;;;;8.23;93.57;101280.13;5306454;28;20329;-68
2022/11/27 16:33:15;;;;;;;9.43;6.40;;;;;;;8.18;94.17;101267.13;5316950;28;20542;-68
2022/11/27 16:35:47;;;;;;;8.18;7.40;;;;;;;8.21;94.39;101266.59;5327678;28;20102;-68
